LEIG weather

Igualada/Odena Airfield
Barcelona, Catalonia, Spain

Public forecast

Using degrees Celsius for public forecast. Weather courtesy of forecast.io.

Closest aviation weather report (METAR) to Igualada/Odena Airfield

Closest report is Sabadell Airport, 20.7 nm (38.3 km) E. Retrieved 2019/10/21 18:30 UTC (15 minutes ago):

LELL 211830Z AUTO 03005KT 350V080 9999 -RA SCT032 16/14 Q1019

Closest aviation forecast (TAF) to Igualada/Odena Airfield

Closest forecast is Sabadell Airport, 20.7 nm (38.3 km) E. Retrieved 2019/10/21 15:27 UTC (3 hours ago):

TAF LELL 211400Z 2115/2215 VRB05KT 9999 FEW025 TX20/2213Z TN13/2206Z PROB40 TEMPO 2115/2122 4000 SHRA FEW050TCU TEMPO 2206/2215 VRB10G20KT 4000 TSRA SCT025CB